createdAt,value
2022-09-07T06:14:26.383Z,13.13
2022-09-07T06:24:26.452Z,11.93
2022-09-07T06:34:26.425Z,16.90
2022-09-07T06:44:26.412Z,17.89
2022-09-07T07:04:26.573Z,13.06
2022-09-07T07:14:28.122Z,19.57
2022-09-07T07:24:26.457Z,10.79
2022-09-07T07:34:26.758Z,11.72
2022-09-07T07:44:26.543Z,8.09
2022-09-07T07:54:26.463Z,7.69
2022-09-07T08:04:26.633Z,8.87
2022-09-07T08:14:26.633Z,6.89
2022-09-07T08:24:26.522Z,7.69
2022-09-07T08:34:26.601Z,6.88
2022-09-07T08:44:26.522Z,6.31
2022-09-07T08:54:26.650Z,0.00
2022-09-07T09:04:27.514Z,0.00
2022-09-07T09:14:26.713Z,0.00
2022-09-07T09:24:26.629Z,0.00
2022-09-07T09:34:29.482Z,0.00
2022-09-07T09:44:26.677Z,0.00
2022-09-07T09:54:26.518Z,0.00
2022-09-07T10:04:26.582Z,0.00
2022-09-07T10:14:26.657Z,0.00
2022-09-07T10:24:26.638Z,0.00
2022-09-07T10:34:26.850Z,0.00
2022-09-07T10:44:26.748Z,0.00
2022-09-07T10:54:30.710Z,0.00
2022-09-07T11:04:26.698Z,0.00
2022-09-07T11:14:26.685Z,0.00
2022-09-07T11:24:26.590Z,0.00
2022-09-07T11:34:26.679Z,0.00
2022-09-07T11:44:26.912Z,0.00
2022-09-07T11:54:26.815Z,0.00
2022-09-07T12:04:27.026Z,0.00
2022-09-07T12:14:27.149Z,0.00
2022-09-07T12:24:27.021Z,0.00
2022-09-07T12:34:27.173Z,0.00
2022-09-07T12:44:29.399Z,0.00
2022-09-07T12:54:27.298Z,0.00
2022-09-07T13:04:27.023Z,0.00
2022-09-07T13:14:27.213Z,0.00
2022-09-07T13:24:47.517Z,0.00
2022-09-07T13:34:27.180Z,0.00
2022-09-07T13:44:27.031Z,0.00
2022-09-07T13:54:27.095Z,0.00
2022-09-07T14:04:27.170Z,0.00
2022-09-07T14:14:27.117Z,0.00
2022-09-07T14:24:26.995Z,0.00
2022-09-07T14:34:27.183Z,0.00
2022-09-07T14:44:27.449Z,0.00
2022-09-07T14:54:27.249Z,0.00
2022-09-07T15:04:27.207Z,0.00
2022-09-07T15:14:27.257Z,0.00
2022-09-07T15:24:27.145Z,0.00
2022-09-07T15:34:27.320Z,0.00
2022-09-07T15:44:28.343Z,0.00
2022-09-07T15:54:27.348Z,0.00
2022-09-07T16:04:27.283Z,0.00
2022-09-07T16:14:27.412Z,0.00
2022-09-07T16:24:27.453Z,0.00
2022-09-07T16:34:27.423Z,0.00
2022-09-07T16:44:27.328Z,0.00
2022-09-07T16:54:27.652Z,0.00
2022-09-07T17:04:27.409Z,0.00
2022-09-07T17:14:27.474Z,0.00
2022-09-07T17:24:27.646Z,0.00
2022-09-07T17:34:27.641Z,3.92
2022-09-07T17:44:30.783Z,9.73
2022-09-07T17:54:27.510Z,13.66
2022-09-07T18:04:28.507Z,7.11
2022-09-07T18:14:27.501Z,4.68
2022-09-07T18:24:27.562Z,5.17
2022-09-07T18:34:27.627Z,5.66
2022-09-07T18:54:27.748Z,3.88
2022-09-07T19:05:49.674Z,1.88
2022-09-07T19:14:27.737Z,2.19
